sensor_id;sensor_type;location;lat;lon;timestamp;temperature;humidity
20335;DHT22;10325;51.468;5.804;2023-04-06T00:02:19;17.70;60.30
20335;DHT22;10325;51.468;5.804;2023-04-06T00:05:02;17.60;60.20
20335;DHT22;10325;51.468;5.804;2023-04-06T00:07:33;17.60;60.20
20335;DHT22;10325;51.468;5.804;2023-04-06T00:10:06;17.60;60.20
20335;DHT22;10325;51.468;5.804;2023-04-06T00:12:34;17.70;60.20
20335;DHT22;10325;51.468;5.804;2023-04-06T00:15:04;17.60;60.20
20335;DHT22;10325;51.468;5.804;2023-04-06T00:17:37;17.60;60.20
20335;DHT22;10325;51.468;5.804;2023-04-06T00:20:08;17.50;60.20
20335;DHT22;10325;51.468;5.804;2023-04-06T00:22:37;17.60;60.20
20335;DHT22;10325;51.468;5.804;2023-04-06T00:25:07;17.60;60.20
20335;DHT22;10325;51.468;5.804;2023-04-06T00:27:39;17.60;60.20
20335;DHT22;10325;51.468;5.804;2023-04-06T00:30:08;17.50;60.10
20335;DHT22;10325;51.468;5.804;2023-04-06T00:32:39;17.50;60.10
20335;DHT22;10325;51.468;5.804;2023-04-06T00:35:08;17.50;60.10
20335;DHT22;10325;51.468;5.804;2023-04-06T00:37:40;17.50;60.10
20335;DHT22;10325;51.468;5.804;2023-04-06T00:40:12;17.50;60.10
20335;DHT22;10325;51.468;5.804;2023-04-06T00:42:42;17.50;60.10
20335;DHT22;10325;51.468;5.804;2023-04-06T00:45:15;17.40;60.10
20335;DHT22;10325;51.468;5.804;2023-04-06T00:47:45;17.50;60.10
20335;DHT22;10325;51.468;5.804;2023-04-06T00:50:17;17.40;60.10
20335;DHT22;10325;51.468;5.804;2023-04-06T00:52:49;17.40;60.00
20335;DHT22;10325;51.468;5.804;2023-04-06T00:55:20;17.40;60.00
20335;DHT22;10325;51.468;5.804;2023-04-06T00:57:50;17.40;60.00
20335;DHT22;10325;51.468;5.804;2023-04-06T01:00:20;17.30;60.00
20335;DHT22;10325;51.468;5.804;2023-04-06T01:02:53;17.30;60.00
20335;DHT22;10325;51.468;5.804;2023-04-06T01:05:26;17.30;60.00
20335;DHT22;10325;51.468;5.804;2023-04-06T01:07:57;17.30;60.00
20335;DHT22;10325;51.468;5.804;2023-04-06T01:10:28;17.40;60.00
20335;DHT22;10325;51.468;5.804;2023-04-06T01:12:58;17.40;60.00
20335;DHT22;10325;51.468;5.804;2023-04-06T01:15:28;17.30;59.90
20335;DHT22;10325;51.468;5.804;2023-04-06T01:18:01;17.30;59.80
20335;DHT22;10325;51.468;5.804;2023-04-06T01:20:31;17.30;59.90
20335;DHT22;10325;51.468;5.804;2023-04-06T01:23:06;17.20;59.80
20335;DHT22;10325;51.468;5.804;2023-04-06T01:25:37;17.30;59.90
20335;DHT22;10325;51.468;5.804;2023-04-06T01:28:07;17.30;59.80
20335;DHT22;10325;51.468;5.804;2023-04-06T01:30:40;17.20;60.00
20335;DHT22;10325;51.468;5.804;2023-04-06T01:33:13;17.20;59.80
20335;DHT22;10325;51.468;5.804;2023-04-06T01:35:47;17.20;59.70
20335;DHT22;10325;51.468;5.804;2023-04-06T01:38:19;17.20;59.70
20335;DHT22;10325;51.468;5.804;2023-04-06T01:40:50;17.20;59.70
20335;DHT22;10325;51.468;5.804;2023-04-06T01:43:22;17.20;59.70
20335;DHT22;10325;51.468;5.804;2023-04-06T01:45:52;17.20;59.70
20335;DHT22;10325;51.468;5.804;2023-04-06T01:48:23;17.20;59.70
20335;DHT22;10325;51.468;5.804;2023-04-06T01:50:52;17.10;59.60
20335;DHT22;10325;51.468;5.804;2023-04-06T01:53:25;17.20;59.70
20335;DHT22;10325;51.468;5.804;2023-04-06T01:56:01;17.20;59.60
20335;DHT22;10325;51.468;5.804;2023-04-06T01:58:31;17.10;59.60
20335;DHT22;10325;51.468;5.804;2023-04-06T02:01:00;17.10;59.50
20335;DHT22;10325;51.468;5.804;2023-04-06T02:03:29;17.10;59.50
20335;DHT22;10325;51.468;5.804;2023-04-06T02:06:02;17.10;59.50
20335;DHT22;10325;51.468;5.804;2023-04-06T02:08:34;17.10;59.50
20335;DHT22;10325;51.468;5.804;2023-04-06T02:11:05;17.10;59.50
20335;DHT22;10325;51.468;5.804;2023-04-06T02:13:33;17.10;59.60
20335;DHT22;10325;51.468;5.804;2023-04-06T02:16:05;17.10;59.50
20335;DHT22;10325;51.468;5.804;2023-04-06T02:18:35;17.10;59.50
20335;DHT22;10325;51.468;5.804;2023-04-06T02:21:07;17.00;59.50
20335;DHT22;10325;51.468;5.804;2023-04-06T02:23:37;17.00;59.50
20335;DHT22;10325;51.468;5.804;2023-04-06T02:26:09;17.00;59.50
20335;DHT22;10325;51.468;5.804;2023-04-06T02:28:40;17.00;59.50
20335;DHT22;10325;51.468;5.804;2023-04-06T02:31:10;17.00;59.50
20335;DHT22;10325;51.468;5.804;2023-04-06T02:33:46;17.00;59.50
20335;DHT22;10325;51.468;5.804;2023-04-06T02:36:17;17.00;59.50
20335;DHT22;10325;51.468;5.804;2023-04-06T02:38:49;17.00;59.50
20335;DHT22;10325;51.468;5.804;2023-04-06T02:41:20;16.90;59.40
20335;DHT22;10325;51.468;5.804;2023-04-06T02:43:51;16.90;59.40
20335;DHT22;10325;51.468;5.804;2023-04-06T02:46:22;16.90;59.40
20335;DHT22;10325;51.468;5.804;2023-04-06T02:48:51;16.90;59.40
20335;DHT22;10325;51.468;5.804;2023-04-06T02:51:21;16.90;59.40
20335;DHT22;10325;51.468;5.804;2023-04-06T02:54:08;16.90;59.30
20335;DHT22;10325;51.468;5.804;2023-04-06T02:56:47;16.90;59.40
20335;DHT22;10325;51.468;5.804;2023-04-06T02:59:20;16.90;59.40
20335;DHT22;10325;51.468;5.804;2023-04-06T03:01:53;16.90;59.40
20335;DHT22;10325;51.468;5.804;2023-04-06T03:04:23;16.80;59.30
20335;DHT22;10325;51.468;5.804;2023-04-06T03:06:56;16.80;59.20
20335;DHT22;10325;51.468;5.804;2023-04-06T03:09:29;16.80;59.30
20335;DHT22;10325;51.468;5.804;2023-04-06T03:11:57;16.80;59.30
20335;DHT22;10325;51.468;5.804;2023-04-06T03:14:29;16.80;59.20
20335;DHT22;10325;51.468;5.804;2023-04-06T03:16:59;16.80;59.20
20335;DHT22;10325;51.468;5.804;2023-04-06T03:19:30;16.90;59.30
20335;DHT22;10325;51.468;5.804;2023-04-06T03:22:05;16.80;59.20
20335;DHT22;10325;51.468;5.804;2023-04-06T03:24:35;16.80;59.20
20335;DHT22;10325;51.468;5.804;2023-04-06T03:27:07;16.80;59.20
20335;DHT22;10325;51.468;5.804;2023-04-06T03:29:37;16.80;59.10
20335;DHT22;10325;51.468;5.804;2023-04-06T03:32:05;16.80;59.10
20335;DHT22;10325;51.468;5.804;2023-04-06T03:34:36;16.80;59.10
20335;DHT22;10325;51.468;5.804;2023-04-06T03:37:11;16.80;59.10
20335;DHT22;10325;51.468;5.804;2023-04-06T03:39:38;16.80;59.10
20335;DHT22;10325;51.468;5.804;2023-04-06T03:42:11;16.80;59.10
20335;DHT22;10325;51.468;5.804;2023-04-06T03:44:42;16.80;59.00
20335;DHT22;10325;51.468;5.804;2023-04-06T03:47:11;16.70;59.00
20335;DHT22;10325;51.468;5.804;2023-04-06T03:49:40;16.80;59.00
20335;DHT22;10325;51.468;5.804;2023-04-06T03:52:12;16.70;58.90
20335;DHT22;10325;51.468;5.804;2023-04-06T03:54:44;16.70;58.90
20335;DHT22;10325;51.468;5.804;2023-04-06T03:57:14;16.80;58.90
20335;DHT22;10325;51.468;5.804;2023-04-06T03:59:45;16.70;58.80
20335;DHT22;10325;51.468;5.804;2023-04-06T04:02:16;16.70;58.80
20335;DHT22;10325;51.468;5.804;2023-04-06T04:04:47;16.70;58.80
20335;DHT22;10325;51.468;5.804;2023-04-06T04:07:14;16.70;58.80
20335;DHT22;10325;51.468;5.804;2023-04-06T04:09:46;16.70;58.80
20335;DHT22;10325;51.468;5.804;2023-04-06T04:12:17;16.70;58.80
20335;DHT22;10325;51.468;5.804;2023-04-06T04:14:47;16.70;58.80
20335;DHT22;10325;51.468;5.804;2023-04-06T04:17:17;16.70;58.80
20335;DHT22;10325;51.468;5.804;2023-04-06T04:19:45;16.70;58.70
20335;DHT22;10325;51.468;5.804;2023-04-06T04:22:22;16.70;58.70
20335;DHT22;10325;51.468;5.804;2023-04-06T04:24:53;16.70;58.70
20335;DHT22;10325;51.468;5.804;2023-04-06T04:27:25;16.70;58.60
20335;DHT22;10325;51.468;5.804;2023-04-06T04:29:55;16.70;58.70
20335;DHT22;10325;51.468;5.804;2023-04-06T04:32:24;16.70;58.70
20335;DHT22;10325;51.468;5.804;2023-04-06T04:34:59;16.70;58.70
20335;DHT22;10325;51.468;5.804;2023-04-06T04:37:30;16.60;58.70
20335;DHT22;10325;51.468;5.804;2023-04-06T04:40:02;16.60;58.70
20335;DHT22;10325;51.468;5.804;2023-04-06T04:42:34;16.60;58.70
20335;DHT22;10325;51.468;5.804;2023-04-06T04:45:06;16.60;58.60
20335;DHT22;10325;51.468;5.804;2023-04-06T04:47:36;16.70;58.60
20335;DHT22;10325;51.468;5.804;2023-04-06T04:50:07;16.70;58.60
20335;DHT22;10325;51.468;5.804;2023-04-06T04:52:37;16.70;58.50
20335;DHT22;10325;51.468;5.804;2023-04-06T04:55:06;16.60;58.40
20335;DHT22;10325;51.468;5.804;2023-04-06T04:57:37;16.60;58.40
20335;DHT22;10325;51.468;5.804;2023-04-06T05:00:06;16.60;58.30
20335;DHT22;10325;51.468;5.804;2023-04-06T05:02:37;16.60;58.30
20335;DHT22;10325;51.468;5.804;2023-04-06T05:05:11;16.60;58.30
20335;DHT22;10325;51.468;5.804;2023-04-06T05:07:41;16.60;58.20
20335;DHT22;10325;51.468;5.804;2023-04-06T05:10:10;16.60;58.10
20335;DHT22;10325;51.468;5.804;2023-04-06T05:12:40;16.60;57.90
20335;DHT22;10325;51.468;5.804;2023-04-06T05:15:09;16.60;57.80
20335;DHT22;10325;51.468;5.804;2023-04-06T05:17:40;16.60;57.80
20335;DHT22;10325;51.468;5.804;2023-04-06T05:20:07;16.60;57.80
20335;DHT22;10325;51.468;5.804;2023-04-06T05:22:38;16.60;57.80
20335;DHT22;10325;51.468;5.804;2023-04-06T05:25:08;16.60;57.60
20335;DHT22;10325;51.468;5.804;2023-04-06T05:27:37;16.60;57.40
20335;DHT22;10325;51.468;5.804;2023-04-06T05:30:07;16.60;57.70
20335;DHT22;10325;51.468;5.804;2023-04-06T05:32:41;16.60;58.00
20335;DHT22;10325;51.468;5.804;2023-04-06T05:35:13;16.60;58.50
20335;DHT22;10325;51.468;5.804;2023-04-06T05:37:44;16.60;58.50
20335;DHT22;10325;51.468;5.804;2023-04-06T05:40:15;16.60;58.40
20335;DHT22;10325;51.468;5.804;2023-04-06T05:42:46;16.60;58.20
20335;DHT22;10325;51.468;5.804;2023-04-06T05:45:16;16.60;58.20
20335;DHT22;10325;51.468;5.804;2023-04-06T05:47:49;16.60;58.10
20335;DHT22;10325;51.468;5.804;2023-04-06T05:50:21;16.60;58.10
20335;DHT22;10325;51.468;5.804;2023-04-06T05:52:51;16.60;58.00
20335;DHT22;10325;51.468;5.804;2023-04-06T05:55:20;16.60;57.90
20335;DHT22;10325;51.468;5.804;2023-04-06T05:57:51;16.60;57.80
20335;DHT22;10325;51.468;5.804;2023-04-06T06:00:22;16.60;57.80
20335;DHT22;10325;51.468;5.804;2023-04-06T06:02:50;16.60;57.60
20335;DHT22;10325;51.468;5.804;2023-04-06T06:05:21;16.60;57.60
20335;DHT22;10325;51.468;5.804;2023-04-06T06:07:51;16.60;58.00
20335;DHT22;10325;51.468;5.804;2023-04-06T06:10:24;16.60;58.50
20335;DHT22;10325;51.468;5.804;2023-04-06T06:12:53;16.60;58.30
20335;DHT22;10325;51.468;5.804;2023-04-06T06:15:26;16.60;58.00
20335;DHT22;10325;51.468;5.804;2023-04-06T06:17:58;16.60;57.90
20335;DHT22;10325;51.468;5.804;2023-04-06T06:20:28;16.60;57.60
20335;DHT22;10325;51.468;5.804;2023-04-06T06:23:00;16.60;57.40
20335;DHT22;10325;51.468;5.804;2023-04-06T06:25:46;16.60;57.40
20335;DHT22;10325;51.468;5.804;2023-04-06T06:28:17;16.60;57.20
20335;DHT22;10325;51.468;5.804;2023-04-06T06:30:47;16.60;57.10
20335;DHT22;10325;51.468;5.804;2023-04-06T06:33:18;16.60;57.00
20335;DHT22;10325;51.468;5.804;2023-04-06T06:35:50;16.70;56.90
20335;DHT22;10325;51.468;5.804;2023-04-06T06:38:23;16.60;56.70
20335;DHT22;10325;51.468;5.804;2023-04-06T06:40:53;16.60;56.60
20335;DHT22;10325;51.468;5.804;2023-04-06T06:43:21;16.60;56.70
20335;DHT22;10325;51.468;5.804;2023-04-06T06:45:52;16.60;56.60
20335;DHT22;10325;51.468;5.804;2023-04-06T06:48:20;16.60;56.40
20335;DHT22;10325;51.468;5.804;2023-04-06T06:50:49;16.60;56.40
20335;DHT22;10325;51.468;5.804;2023-04-06T06:53:24;16.60;56.30
20335;DHT22;10325;51.468;5.804;2023-04-06T06:55:56;16.60;56.30
20335;DHT22;10325;51.468;5.804;2023-04-06T06:58:26;16.60;56.30
20335;DHT22;10325;51.468;5.804;2023-04-06T07:00:58;16.60;56.30
20335;DHT22;10325;51.468;5.804;2023-04-06T07:03:27;16.60;56.20
20335;DHT22;10325;51.468;5.804;2023-04-06T07:06:01;16.60;56.10
20335;DHT22;10325;51.468;5.804;2023-04-06T07:08:31;16.60;56.20
20335;DHT22;10325;51.468;5.804;2023-04-06T07:11:06;16.60;56.20
20335;DHT22;10325;51.468;5.804;2023-04-06T07:13:36;16.60;56.10
20335;DHT22;10325;51.468;5.804;2023-04-06T07:16:08;16.60;56.10
20335;DHT22;10325;51.468;5.804;2023-04-06T07:18:44;16.60;55.90
20335;DHT22;10325;51.468;5.804;2023-04-06T07:21:14;16.70;55.80
20335;DHT22;10325;51.468;5.804;2023-04-06T07:23:46;16.60;55.70
20335;DHT22;10325;51.468;5.804;2023-04-06T07:26:17;16.60;55.50
20335;DHT22;10325;51.468;5.804;2023-04-06T07:28:49;16.60;55.50
20335;DHT22;10325;51.468;5.804;2023-04-06T07:31:20;16.60;55.50
20335;DHT22;10325;51.468;5.804;2023-04-06T07:33:50;16.70;55.50
20335;DHT22;10325;51.468;5.804;2023-04-06T07:36:27;16.60;55.40
20335;DHT22;10325;51.468;5.804;2023-04-06T07:38:58;16.60;55.40
20335;DHT22;10325;51.468;5.804;2023-04-06T07:41:28;16.60;55.30
20335;DHT22;10325;51.468;5.804;2023-04-06T07:43:59;16.60;55.30
20335;DHT22;10325;51.468;5.804;2023-04-06T07:46:32;16.60;55.20
20335;DHT22;10325;51.468;5.804;2023-04-06T07:49:02;16.60;55.20
20335;DHT22;10325;51.468;5.804;2023-04-06T07:51:37;16.60;55.20
20335;DHT22;10325;51.468;5.804;2023-04-06T07:54:08;16.60;55.10
20335;DHT22;10325;51.468;5.804;2023-04-06T07:56:38;16.60;55.20
20335;DHT22;10325;51.468;5.804;2023-04-06T07:59:08;16.70;55.10
20335;DHT22;10325;51.468;5.804;2023-04-06T08:01:39;16.60;55.10
20335;DHT22;10325;51.468;5.804;2023-04-06T08:04:08;16.70;55.10
20335;DHT22;10325;51.468;5.804;2023-04-06T08:06:42;16.60;55.00
20335;DHT22;10325;51.468;5.804;2023-04-06T08:09:15;16.70;54.90
20335;DHT22;10325;51.468;5.804;2023-04-06T08:11:44;16.70;54.90
20335;DHT22;10325;51.468;5.804;2023-04-06T08:14:15;16.70;54.90
20335;DHT22;10325;51.468;5.804;2023-04-06T08:16:46;16.70;54.90
20335;DHT22;10325;51.468;5.804;2023-04-06T08:19:15;16.60;54.90
20335;DHT22;10325;51.468;5.804;2023-04-06T08:21:46;16.70;54.90
20335;DHT22;10325;51.468;5.804;2023-04-06T08:24:15;16.70;54.90
20335;DHT22;10325;51.468;5.804;2023-04-06T08:26:46;16.70;54.80
20335;DHT22;10325;51.468;5.804;2023-04-06T08:29:16;16.70;54.90
20335;DHT22;10325;51.468;5.804;2023-04-06T08:31:48;16.70;54.80
20335;DHT22;10325;51.468;5.804;2023-04-06T08:34:18;16.70;54.80
20335;DHT22;10325;51.468;5.804;2023-04-06T08:36:47;16.70;54.70
20335;DHT22;10325;51.468;5.804;2023-04-06T08:39:20;16.70;54.70
20335;DHT22;10325;51.468;5.804;2023-04-06T08:41:54;16.70;54.70
20335;DHT22;10325;51.468;5.804;2023-04-06T08:44:31;16.70;54.60
20335;DHT22;10325;51.468;5.804;2023-04-06T08:47:05;16.70;54.60
20335;DHT22;10325;51.468;5.804;2023-04-06T08:49:45;16.70;55.30
20335;DHT22;10325;51.468;5.804;2023-04-06T08:52:18;16.70;54.60
20335;DHT22;10325;51.468;5.804;2023-04-06T08:54:46;16.70;54.60
20335;DHT22;10325;51.468;5.804;2023-04-06T08:57:19;16.70;54.50
20335;DHT22;10325;51.468;5.804;2023-04-06T08:59:54;16.70;54.50
20335;DHT22;10325;51.468;5.804;2023-04-06T09:02:24;16.70;54.50
20335;DHT22;10325;51.468;5.804;2023-04-06T09:04:56;16.70;54.40
20335;DHT22;10325;51.468;5.804;2023-04-06T09:07:28;16.80;54.40
20335;DHT22;10325;51.468;5.804;2023-04-06T09:09:59;16.70;54.20
20335;DHT22;10325;51.468;5.804;2023-04-06T09:12:32;16.80;54.30
20335;DHT22;10325;51.468;5.804;2023-04-06T09:15:02;16.80;54.20
20335;DHT22;10325;51.468;5.804;2023-04-06T09:17:33;16.80;54.20
20335;DHT22;10325;51.468;5.804;2023-04-06T09:20:05;16.80;54.30
20335;DHT22;10325;51.468;5.804;2023-04-06T09:22:55;16.80;54.20
20335;DHT22;10325;51.468;5.804;2023-04-06T09:25:25;16.80;54.20
20335;DHT22;10325;51.468;5.804;2023-04-06T09:28:07;16.80;54.20
20335;DHT22;10325;51.468;5.804;2023-04-06T09:30:48;16.80;54.20
20335;DHT22;10325;51.468;5.804;2023-04-06T09:33:26;16.80;54.20
20335;DHT22;10325;51.468;5.804;2023-04-06T09:35:58;16.80;54.00
20335;DHT22;10325;51.468;5.804;2023-04-06T09:38:29;16.80;54.00
20335;DHT22;10325;51.468;5.804;2023-04-06T09:41:01;16.80;54.00
20335;DHT22;10325;51.468;5.804;2023-04-06T09:43:32;16.80;53.90
20335;DHT22;10325;51.468;5.804;2023-04-06T09:46:03;16.80;53.90
20335;DHT22;10325;51.468;5.804;2023-04-06T09:48:33;16.90;53.90
20335;DHT22;10325;51.468;5.804;2023-04-06T09:51:04;16.80;53.90
20335;DHT22;10325;51.468;5.804;2023-04-06T09:53:45;16.90;54.00
20335;DHT22;10325;51.468;5.804;2023-04-06T09:56:22;16.80;53.80
20335;DHT22;10325;51.468;5.804;2023-04-06T09:59:15;16.90;54.10
20335;DHT22;10325;51.468;5.804;2023-04-06T10:01:55;16.90;54.00
20335;DHT22;10325;51.468;5.804;2023-04-06T10:04:43;16.90;53.90
20335;DHT22;10325;51.468;5.804;2023-04-06T10:07:19;16.90;54.10
20335;DHT22;10325;51.468;5.804;2023-04-06T10:09:49;16.90;54.10
20335;DHT22;10325;51.468;5.804;2023-04-06T10:12:19;16.90;54.00
20335;DHT22;10325;51.468;5.804;2023-04-06T10:14:52;16.90;53.90
20335;DHT22;10325;51.468;5.804;2023-04-06T10:17:25;16.90;54.00
20335;DHT22;10325;51.468;5.804;2023-04-06T10:20:09;16.90;54.50
20335;DHT22;10325;51.468;5.804;2023-04-06T10:23:01;17.00;53.90
20335;DHT22;10325;51.468;5.804;2023-04-06T10:25:34;16.90;53.80
20335;DHT22;10325;51.468;5.804;2023-04-06T10:28:10;17.00;53.90
20335;DHT22;10325;51.468;5.804;2023-04-06T10:30:46;17.00;53.90
20335;DHT22;10325;51.468;5.804;2023-04-06T10:33:19;17.00;54.10
20335;DHT22;10325;51.468;5.804;2023-04-06T10:35:50;17.00;54.00
20335;DHT22;10325;51.468;5.804;2023-04-06T10:38:21;17.00;54.00
20335;DHT22;10325;51.468;5.804;2023-04-06T10:41:09;17.00;54.00
20335;DHT22;10325;51.468;5.804;2023-04-06T10:43:42;17.00;54.00
20335;DHT22;10325;51.468;5.804;2023-04-06T10:46:28;17.00;54.10
20335;DHT22;10325;51.468;5.804;2023-04-06T10:49:14;17.00;54.10
20335;DHT22;10325;51.468;5.804;2023-04-06T10:51:43;17.00;54.10
20335;DHT22;10325;51.468;5.804;2023-04-06T10:54:11;17.10;54.10
20335;DHT22;10325;51.468;5.804;2023-04-06T10:56:45;17.10;54.10
20335;DHT22;10325;51.468;5.804;2023-04-06T10:59:12;17.10;54.10
20335;DHT22;10325;51.468;5.804;2023-04-06T11:01:44;17.10;54.00
20335;DHT22;10325;51.468;5.804;2023-04-06T11:04:19;17.10;54.00
20335;DHT22;10325;51.468;5.804;2023-04-06T11:06:51;17.10;54.00
20335;DHT22;10325;51.468;5.804;2023-04-06T11:09:29;17.10;54.00
20335;DHT22;10325;51.468;5.804;2023-04-06T11:12:39;17.10;54.10
20335;DHT22;10325;51.468;5.804;2023-04-06T11:15:10;17.20;54.10
20335;DHT22;10325;51.468;5.804;2023-04-06T11:17:40;17.10;54.00
20335;DHT22;10325;51.468;5.804;2023-04-06T11:20:10;17.10;54.00
20335;DHT22;10325;51.468;5.804;2023-04-06T11:22:49;17.10;54.00
20335;DHT22;10325;51.468;5.804;2023-04-06T11:25:20;17.20;54.00
20335;DHT22;10325;51.468;5.804;2023-04-06T11:27:51;17.20;53.90
20335;DHT22;10325;51.468;5.804;2023-04-06T11:30:23;17.20;53.90
20335;DHT22;10325;51.468;5.804;2023-04-06T11:33:01;17.20;53.90
20335;DHT22;10325;51.468;5.804;2023-04-06T11:35:35;17.20;53.90
20335;DHT22;10325;51.468;5.804;2023-04-06T11:38:06;17.20;53.90
20335;DHT22;10325;51.468;5.804;2023-04-06T11:40:36;17.20;53.90
20335;DHT22;10325;51.468;5.804;2023-04-06T11:43:10;17.20;54.00
20335;DHT22;10325;51.468;5.804;2023-04-06T11:45:44;17.20;53.90
20335;DHT22;10325;51.468;5.804;2023-04-06T11:48:21;17.20;53.70
20335;DHT22;10325;51.468;5.804;2023-04-06T11:51:01;17.20;53.80
20335;DHT22;10325;51.468;5.804;2023-04-06T11:53:48;17.20;53.90
20335;DHT22;10325;51.468;5.804;2023-04-06T11:56:24;17.20;53.90
20335;DHT22;10325;51.468;5.804;2023-04-06T11:59:03;17.20;53.90
20335;DHT22;10325;51.468;5.804;2023-04-06T12:01:44;17.20;54.00
20335;DHT22;10325;51.468;5.804;2023-04-06T12:04:15;17.20;53.90
20335;DHT22;10325;51.468;5.804;2023-04-06T12:06:46;17.20;54.00
20335;DHT22;10325;51.468;5.804;2023-04-06T12:09:17;17.20;54.00
20335;DHT22;10325;51.468;5.804;2023-04-06T12:11:49;17.20;53.70
20335;DHT22;10325;51.468;5.804;2023-04-06T12:14:18;17.20;53.80
20335;DHT22;10325;51.468;5.804;2023-04-06T12:16:46;17.20;53.70
20335;DHT22;10325;51.468;5.804;2023-04-06T12:19:15;17.20;53.90
20335;DHT22;10325;51.468;5.804;2023-04-06T12:21:44;17.20;53.90
20335;DHT22;10325;51.468;5.804;2023-04-06T12:24:16;17.20;53.90
20335;DHT22;10325;51.468;5.804;2023-04-06T12:26:47;17.20;53.80
20335;DHT22;10325;51.468;5.804;2023-04-06T12:29:27;17.20;53.70
20335;DHT22;10325;51.468;5.804;2023-04-06T12:31:56;17.20;53.50
20335;DHT22;10325;51.468;5.804;2023-04-06T12:34:26;17.20;53.70
20335;DHT22;10325;51.468;5.804;2023-04-06T12:36:58;17.20;53.70
20335;DHT22;10325;51.468;5.804;2023-04-06T12:39:27;17.20;53.70
20335;DHT22;10325;51.468;5.804;2023-04-06T12:41:56;17.20;53.60
20335;DHT22;10325;51.468;5.804;2023-04-06T12:44:29;17.20;53.70
20335;DHT22;10325;51.468;5.804;2023-04-06T12:47:01;17.20;53.70
20335;DHT22;10325;51.468;5.804;2023-04-06T12:49:32;17.20;53.70
20335;DHT22;10325;51.468;5.804;2023-04-06T12:52:03;17.20;53.70
20335;DHT22;10325;51.468;5.804;2023-04-06T12:54:33;17.30;53.70
20335;DHT22;10325;51.468;5.804;2023-04-06T12:57:03;17.30;53.70
20335;DHT22;10325;51.468;5.804;2023-04-06T12:59:34;17.20;53.70
20335;DHT22;10325;51.468;5.804;2023-04-06T13:02:04;17.30;53.70
20335;DHT22;10325;51.468;5.804;2023-04-06T13:04:36;17.30;53.70
20335;DHT22;10325;51.468;5.804;2023-04-06T13:07:08;17.30;53.70
20335;DHT22;10325;51.468;5.804;2023-04-06T13:09:39;17.30;53.70
20335;DHT22;10325;51.468;5.804;2023-04-06T13:12:12;17.20;53.70
20335;DHT22;10325;51.468;5.804;2023-04-06T13:14:41;17.30;53.70
20335;DHT22;10325;51.468;5.804;2023-04-06T13:17:11;17.20;53.60
20335;DHT22;10325;51.468;5.804;2023-04-06T13:19:42;17.20;53.70
20335;DHT22;10325;51.468;5.804;2023-04-06T13:22:15;17.30;53.40
20335;DHT22;10325;51.468;5.804;2023-04-06T13:24:44;17.30;53.70
20335;DHT22;10325;51.468;5.804;2023-04-06T13:27:16;17.20;53.60
20335;DHT22;10325;51.468;5.804;2023-04-06T13:29:48;17.20;53.70
20335;DHT22;10325;51.468;5.804;2023-04-06T13:32:16;17.30;53.70
20335;DHT22;10325;51.468;5.804;2023-04-06T13:34:47;17.20;53.60
20335;DHT22;10325;51.468;5.804;2023-04-06T13:37:19;17.20;53.60
20335;DHT22;10325;51.468;5.804;2023-04-06T13:39:49;17.30;53.50
20335;DHT22;10325;51.468;5.804;2023-04-06T13:42:19;17.30;53.70
20335;DHT22;10325;51.468;5.804;2023-04-06T13:44:56;17.30;53.70
20335;DHT22;10325;51.468;5.804;2023-04-06T13:47:25;17.30;53.60
20335;DHT22;10325;51.468;5.804;2023-04-06T13:49:55;17.30;53.50
20335;DHT22;10325;51.468;5.804;2023-04-06T13:52:27;17.30;53.60
20335;DHT22;10325;51.468;5.804;2023-04-06T13:54:58;17.30;53.80
20335;DHT22;10325;51.468;5.804;2023-04-06T13:57:28;17.30;53.60
20335;DHT22;10325;51.468;5.804;2023-04-06T14:00:01;17.30;53.70
20335;DHT22;10325;51.468;5.804;2023-04-06T14:02:36;17.20;53.70
20335;DHT22;10325;51.468;5.804;2023-04-06T14:05:12;17.30;53.80
20335;DHT22;10325;51.468;5.804;2023-04-06T14:07:42;17.30;53.80
20335;DHT22;10325;51.468;5.804;2023-04-06T14:10:22;17.30;53.80
20335;DHT22;10325;51.468;5.804;2023-04-06T14:12:51;17.30;53.80
20335;DHT22;10325;51.468;5.804;2023-04-06T14:15:35;17.30;53.80
20335;DHT22;10325;51.468;5.804;2023-04-06T14:18:07;17.30;53.70
20335;DHT22;10325;51.468;5.804;2023-04-06T14:20:37;17.30;53.70
20335;DHT22;10325;51.468;5.804;2023-04-06T14:23:12;17.30;53.80
20335;DHT22;10325;51.468;5.804;2023-04-06T14:25:43;17.30;53.80
20335;DHT22;10325;51.468;5.804;2023-04-06T14:28:13;17.30;53.80
20335;DHT22;10325;51.468;5.804;2023-04-06T14:30:42;17.30;53.80
20335;DHT22;10325;51.468;5.804;2023-04-06T14:33:13;17.30;53.90
20335;DHT22;10325;51.468;5.804;2023-04-06T14:35:44;17.30;53.90
20335;DHT22;10325;51.468;5.804;2023-04-06T14:38:16;17.30;54.00
20335;DHT22;10325;51.468;5.804;2023-04-06T14:40:45;17.20;53.90
20335;DHT22;10325;51.468;5.804;2023-04-06T14:43:15;17.20;53.90
20335;DHT22;10325;51.468;5.804;2023-04-06T14:45:45;17.30;53.90
20335;DHT22;10325;51.468;5.804;2023-04-06T14:48:17;17.30;53.90
20335;DHT22;10325;51.468;5.804;2023-04-06T14:50:55;17.30;53.90
20335;DHT22;10325;51.468;5.804;2023-04-06T14:53:26;17.30;53.90
20335;DHT22;10325;51.468;5.804;2023-04-06T14:55:57;17.30;54.00
20335;DHT22;10325;51.468;5.804;2023-04-06T14:58:28;17.30;54.60
20335;DHT22;10325;51.468;5.804;2023-04-06T15:01:03;17.30;53.90
20335;DHT22;10325;51.468;5.804;2023-04-06T15:03:33;17.30;53.90
20335;DHT22;10325;51.468;5.804;2023-04-06T15:06:05;17.30;53.90
20335;DHT22;10325;51.468;5.804;2023-04-06T15:08:37;17.30;53.90
20335;DHT22;10325;51.468;5.804;2023-04-06T15:11:07;17.30;53.90
20335;DHT22;10325;51.468;5.804;2023-04-06T15:13:38;17.30;54.00
20335;DHT22;10325;51.468;5.804;2023-04-06T15:16:07;17.30;54.00
20335;DHT22;10325;51.468;5.804;2023-04-06T15:18:42;17.20;54.00
20335;DHT22;10325;51.468;5.804;2023-04-06T15:21:12;17.20;54.00
20335;DHT22;10325;51.468;5.804;2023-04-06T15:23:41;17.20;54.10
20335;DHT22;10325;51.468;5.804;2023-04-06T15:26:12;17.20;54.10
20335;DHT22;10325;51.468;5.804;2023-04-06T15:28:42;17.20;54.10
20335;DHT22;10325;51.468;5.804;2023-04-06T15:31:18;17.30;54.20
20335;DHT22;10325;51.468;5.804;2023-04-06T15:34:26;17.30;54.20
20335;DHT22;10325;51.468;5.804;2023-04-06T15:37:02;17.20;54.10
20335;DHT22;10325;51.468;5.804;2023-04-06T15:39:34;17.20;54.10
20335;DHT22;10325;51.468;5.804;2023-04-06T15:42:07;17.20;54.30
20335;DHT22;10325;51.468;5.804;2023-04-06T15:44:39;17.30;54.30
20335;DHT22;10325;51.468;5.804;2023-04-06T15:47:09;17.20;54.30
20335;DHT22;10325;51.468;5.804;2023-04-06T15:49:37;17.20;54.60
20335;DHT22;10325;51.468;5.804;2023-04-06T15:52:07;17.20;55.00
20335;DHT22;10325;51.468;5.804;2023-04-06T15:54:37;17.20;54.80
20335;DHT22;10325;51.468;5.804;2023-04-06T15:57:10;17.20;54.80
20335;DHT22;10325;51.468;5.804;2023-04-06T15:59:53;17.20;54.70
20335;DHT22;10325;51.468;5.804;2023-04-06T16:02:27;17.20;54.70